METAR Data
IDs: Format: Raw Decoded Include TAF

Data at: 1747 UTC 25 Mar 2019

KCRP 251651Z 19005KT 8SM FEW015 BKN024 OVC028 24/19 A3010 RMK AO2 SLP192 T02440189
KCRP 251551Z 19008KT 10SM FEW011 SCT018 OVC026 24/19 A3010 RMK AO2 SLP190 T02440194
KCRP 251451Z 13006KT 9SM FEW008 BKN029 OVC055 23/20 A3008 RMK AO2 SLP186 T02330200 51022
KCRP 251351Z 10003KT 7SM FEW006 SCT009 OVC025 22/20 A3007 RMK AO2 SLP179 T02220200 $
KCRP 251318Z 11003KT 5SM BR FEW004 SCT006 OVC025 22/20 A3006 RMK AO2 T02170200 $
KCRP 251306Z 09003KT 5SM BR FEW003 OVC006 22/20 A3005 RMK AO2 T02170200 $
KCRP 251251Z 08003KT 4SM BR OVC004 21/20 A3005 RMK AO2 SLP174 T02110200 /
KCRP 251212Z 13003KT 4SM BR BKN003 OVC024 21/19 A3002 RMK AO2 T02110194 $
KCRP 251151Z 15005KT 5SM OVC005 21/19 A3002 RMK AO2 SLP164 T02110194 10217 20206 55000 $
KCRP 251051Z 14005KT 7SM OVC005 21/19 A3002 RMK AO2 SLP164 T02110194 $
KCRP 250951Z 16006KT 8SM BKN007 OVC011 21/19 A3002 RMK AO2 SLP163 T02110194 $
KCRP 250902Z 18004KT 9SM BKN009 OVC018 21/19 A3002 RMK AO2 T02110194 $
KCRP 250851Z 15005KT 9SM SCT010 BKN015 OVC023 21/19 A3002 RMK AO2 SLP164 T02110194 58009 $
KCRP 250831Z 16005KT 10SM FEW012 BKN024 OVC032 21/19 A3003 RMK AO2 T02110194 $
KCRP 250751Z 15009KT 9SM FEW012 OVC034 21/19 A3003 RMK AO2 SLP167 T02110194 $
KCRP 250651Z 15009KT 9SM FEW013 OVC032 21/19 A3004 RMK AO2 SLP172 T02110194 $
KCRP 250551Z 16009KT 10SM FEW011 FEW050 21/19 A3005 RMK AO2 SLP174 T02060189 10244 20206 402830172 50008 $
KCRP 250451Z 14011KT 10SM FEW013 FEW050 21/19 A3005 RMK AO2 SLP175 T02110194 $
KCRP 250351Z 14013KT 10SM FEW013 FEW050 22/19 A3005 RMK AO2 SLP173 T02170194 $
KCRP 250251Z 14015KT 10SM FEW013 BKN050 22/19 A3003 RMK AO2 SLP166 T02220194 53008 $
KCRP 250151Z 14015KT 10SM FEW012 BKN050 23/19 A3001 RMK AO2 SLP160 T02280194 $
KCRP 250051Z 14013KT 10SM FEW013 BKN050 23/19 A3001 RMK AO2 SLP160 T02330194 $
KCRP 242351Z 14018KT 10SM FEW019 BKN049 24/19 A3000 RMK AO2 SLP157 T02440194 10283 20244 55003 $
KCRP 242251Z 15019KT 10SM FEW022 BKN049 26/19 A2999 RMK AO2 SLP155 T02610189 $
KCRP 242201Z 14020KT 10SM SCT025 BKN048 BKN080 27/19 A3000 RMK AO2 T02720189 $
KCRP 242151Z 15020KT 10SM BKN025 BKN048 BKN080 27/19 A3000 RMK AO2 PK WND 15026/2138 SLP157 T02720189 $
KCRP 242051Z 15019KT 10SM BKN026 BKN034 BKN046 28/19 A3001 RMK AO2 PK WND 15026/2041 SLP161 T02780194 56022 $
KCRP 241951Z 15018KT 10SM SCT021 BKN026 OVC046 27/19 A3003 RMK AO2 SLP166 T02720194 $
KCRP 241851Z 14016KT 10SM SCT021 BKN028 OVC046 26/19 A3005 RMK AO2 SLP175 T02610194 $
KCRP 241751Z 15013KT 10SM SCT021 BKN028 OVC043 26/19 A3007 RMK AO2 SLP183 T02560189 10261 20183 56008 $
KCRP 241747Z 15013KT 10SM SCT021 BKN028 OVC040 26/19 A3008 RMK AO2 $
KCRP 241722Z 16015KT 10SM FEW019 BKN032 OVC040 26/19 A3009 RMK AO2 T02560194 $
KCRP 241651Z 16014KT 10SM BKN017 BKN025 OVC043 26/19 A3009 RMK AO2 SLP188 T02560194 $
KCRP 241551Z 16013KT 10SM SCT015 BKN022 BKN043 24/19 A3010 RMK AO2 SLP190 T02390194 $
KCRP 241517Z 14011KT 9SM FEW008 SCT014 BKN041 23/20 A3009 RMK AO2 T02330200 $
KCRP 241451Z 13010KT 9SM FEW014 FEW024 BKN045 23/20 A3009 RMK AO2 SLP189 T02280200 53015 $
KCRP 241401Z 13007KT 8SM FEW009 SCT031 BKN045 BKN170 21/19 A3008 RMK AO2 VCSH E T02110194 $
KCRP 241351Z 13007KT 9SM FEW011 SCT037 OVC048 21/19 A3008 RMK AO2 SLP183 VCSH E-SE T02110194 /
KCRP 241251Z 14005KT 8SM FEW013 BKN035 OVC044 19/18 A3006 RMK AO2 SLP178 T01940183 $
KCRP 241151Z 13005KT 10SM FEW013 SCT026 BKN034 18/17 A3005 RMK AO2 SLP174 T01830172 10194 20172 53008 $
KCRP 241051Z 13006KT 10SM FEW024 SCT028 18/17 A3003 RMK AO2 SLP167 T01780167 $
KCRP 241007Z 14006KT 10SM FEW015 SCT024 BKN050 18/17 A3002 RMK AO2 T01830167 $
KCRP 240951Z 14004KT 10SM SCT015 BKN020 BKN024 18/17 A3002 RMK AO2 SLP166 T01830167 $
KCRP 240938Z 15006KT 10SM BKN018 BKN026 18/17 A3002 RMK AO2 T01780167 $
KCRP 240851Z 14008KT 10SM FEW019 FEW023 18/17 A3002 RMK AO2 SLP166 T01780167 58009 $
KCRP 240751Z 15009KT 10SM CLR 18/16 A3003 RMK AO2 SLP167 T01780161 $
KCRP 240651Z 17005KT 10SM FEW015 18/16 A3006 RMK AO2 SLP176 T01830161 $
KCRP 240551Z 16009KT 10SM FEW035 FEW070 19/17 A3005 RMK AO2 SLP175 T01940167 10228 20189 402670189 50002 $